createdAt,value
2023-03-05T00:01:19.645Z,98096.44
2023-03-05T00:03:46.520Z,98094.78
2023-03-05T00:06:13.118Z,98093.94
2023-03-05T00:08:40.374Z,98093.94
2023-03-05T00:11:09.996Z,98097.53
2023-03-05T00:13:37.623Z,98093.59
2023-03-05T00:16:05.804Z,98098.41
2023-03-05T00:18:32.703Z,98084.13
2023-03-05T00:20:59.358Z,98095.84
2023-03-05T00:23:26.223Z,98087.09
2023-03-05T00:25:55.941Z,98087.91
2023-03-05T00:28:22.546Z,98091.44
2023-03-05T00:30:49.159Z,98090.69
2023-03-05T00:33:15.785Z,98082.78
2023-03-05T00:35:44.234Z,98082.78
2023-03-05T00:38:12.667Z,98081.94
2023-03-05T00:40:41.562Z,98074.97
2023-03-05T00:43:09.072Z,98076.78
2023-03-05T00:45:35.805Z,98061.38
2023-03-05T00:48:03.745Z,98057.09
2023-03-05T00:50:30.396Z,98059.75
2023-03-05T00:52:57.015Z,98065.50
2023-03-05T00:55:23.536Z,98069.81
2023-03-05T00:57:50.114Z,98075.09
2023-03-05T01:00:17.700Z,98066.44
2023-03-05T01:02:44.278Z,98056.00
2023-03-05T01:05:14.644Z,98060.34
2023-03-05T01:07:41.369Z,98064.75
2023-03-05T01:10:08.805Z,98056.97
2023-03-05T01:12:35.753Z,98069.31
2023-03-05T01:15:02.920Z,98063.22
2023-03-05T01:17:29.483Z,98067.75
2023-03-05T01:19:55.998Z,98057.19
2023-03-05T01:22:22.674Z,98065.97
2023-03-05T01:24:49.194Z,98062.47
2023-03-05T01:27:15.746Z,98065.97
2023-03-05T01:29:42.301Z,98061.66
2023-03-05T01:32:09.053Z,98059.13
2023-03-05T01:34:37.742Z,98044.00
2023-03-05T01:37:04.473Z,98056.50
2023-03-05T01:39:31.083Z,98055.66
2023-03-05T01:41:57.740Z,98059.25
2023-03-05T01:44:26.760Z,98061.06
2023-03-05T01:46:53.544Z,98057.59
2023-03-05T01:49:25.713Z,98055.03
2023-03-05T01:51:58.430Z,98053.25
2023-03-05T01:54:31.592Z,98055.03
2023-03-05T01:57:01.917Z,98053.41
2023-03-05T01:59:28.638Z,98060.47
2023-03-05T02:01:57.749Z,98049.06
2023-03-05T02:04:32.404Z,98059.63
2023-03-05T02:06:59.534Z,98050.03
2023-03-05T02:09:28.608Z,98045.22
2023-03-05T02:11:56.408Z,98050.16
2023-03-05T02:14:24.297Z,98057.22
2023-03-05T02:16:50.955Z,98046.78
2023-03-05T02:19:17.712Z,98052.91
2023-03-05T02:21:48.631Z,98041.50
2023-03-05T02:24:17.826Z,98045.09
2023-03-05T02:26:46.685Z,98024.72
2023-03-05T02:29:18.722Z,98046.06
2023-03-05T02:31:45.804Z,98045.22
2023-03-05T02:34:12.475Z,98039.09
2023-03-05T02:36:39.467Z,98035.63
2023-03-05T02:39:06.590Z,98034.78
2023-03-05T02:41:33.672Z,98041.72
2023-03-05T02:46:29.932Z,98029.59
2023-03-05T02:48:56.579Z,98028.06
2023-03-05T02:51:24.000Z,98037.66
2023-03-05T02:53:51.085Z,98036.84
2023-03-05T02:56:17.898Z,98029.88
2023-03-05T02:58:44.590Z,98017.50
2023-03-05T03:01:11.861Z,98017.50
2023-03-05T03:03:38.750Z,98021.94
2023-03-05T03:06:09.217Z,98013.16
2023-03-05T03:08:35.985Z,98018.44
2023-03-05T03:11:11.062Z,98016.78
2023-03-05T03:13:38.040Z,98019.53
2023-03-05T03:16:10.695Z,98016.88
2023-03-05T03:18:37.263Z,98020.38
2023-03-05T03:21:04.500Z,98009.72
2023-03-05T03:23:31.544Z,98019.66
2023-03-05T03:25:58.187Z,98014.75
2023-03-05T03:28:25.358Z,98018.84
2023-03-05T03:30:51.971Z,98017.97
2023-03-05T03:33:18.601Z,98007.53
2023-03-05T03:35:46.432Z,98006.72
2023-03-05T03:38:13.824Z,98007.69
2023-03-05T03:40:41.851Z,98004.19
2023-03-05T03:43:08.719Z,98005.13
2023-03-05T03:45:35.442Z,98000.84
2023-03-05T03:48:02.029Z,98007.06
2023-03-05T03:50:28.600Z,98007.06
2023-03-05T03:52:55.190Z,98005.38
2023-03-05T03:55:21.709Z,98001.06
2023-03-05T03:57:48.313Z,97993.00
2023-03-05T04:00:15.193Z,97994.97
2023-03-05T04:02:42.747Z,97995.78
2023-03-05T04:05:09.572Z,97995.91
2023-03-05T04:07:36.194Z,97984.50
2023-03-05T04:10:02.899Z,97985.34
2023-03-05T04:12:29.537Z,97981.16
2023-03-05T04:14:56.021Z,97982.00
2023-03-05T04:17:22.690Z,97967.84
2023-03-05T04:19:49.407Z,97975.97
2023-03-05T04:22:17.475Z,97980.31
2023-03-05T04:24:44.327Z,97974.31
2023-03-05T04:27:12.389Z,97981.38
2023-03-05T04:29:38.885Z,97974.44
2023-03-05T04:32:06.366Z,97954.88
2023-03-05T04:34:33.435Z,97964.00
2023-03-05T04:37:00.094Z,97960.63
2023-03-05T04:39:26.651Z,97966.75
2023-03-05T04:41:53.207Z,97973.81
2023-03-05T04:44:19.761Z,97946.63
2023-03-05T04:46:46.442Z,97964.25
2023-03-05T04:49:13.190Z,97952.25
2023-03-05T04:51:39.755Z,97957.28
2023-03-05T04:54:06.266Z,97963.53
2023-03-05T04:56:33.346Z,97948.63
2023-03-05T04:59:00.066Z,97949.59
2023-03-05T05:01:26.798Z,97944.44
2023-03-05T05:03:53.330Z,97946.97
2023-03-05T05:06:19.966Z,97936.53
2023-03-05T05:08:46.446Z,97935.72
2023-03-05T05:11:14.423Z,97924.16
2023-03-05T05:13:41.006Z,97935.81
2023-03-05T05:16:08.548Z,97943.72
2023-03-05T05:18:35.657Z,97936.75
2023-03-05T05:21:02.308Z,97931.59
2023-03-05T05:23:28.845Z,97928.16
2023-03-05T05:25:57.875Z,97930.78
2023-03-05T05:28:24.518Z,97936.06
2023-03-05T05:30:51.048Z,97929.94
2023-03-05T05:33:17.594Z,97935.94
2023-03-05T05:35:44.221Z,97909.53
2023-03-05T05:38:10.780Z,97932.47
2023-03-05T05:40:37.380Z,97934.97
2023-03-05T05:43:04.052Z,97934.97
2023-03-05T05:45:30.795Z,97942.16
2023-03-05T05:47:57.467Z,97925.97
2023-03-05T05:50:24.045Z,97937.84
2023-03-05T05:52:53.362Z,97949.25
2023-03-05T05:55:20.153Z,97958.00
2023-03-05T05:57:46.777Z,97953.03
2023-03-05T06:00:16.497Z,97954.13
2023-03-05T06:02:43.683Z,97956.06
2023-03-05T06:05:12.961Z,97976.47
2023-03-05T06:07:39.454Z,97973.84
2023-03-05T06:10:06.822Z,97971.19
2023-03-05T06:12:33.310Z,97970.38
2023-03-05T06:14:59.911Z,97971.34
2023-03-05T06:17:30.673Z,97973.00
2023-03-05T06:19:58.706Z,97965.09
2023-03-05T06:22:25.511Z,97966.66
2023-03-05T06:24:52.162Z,97962.31
2023-03-05T06:27:18.649Z,97954.41
2023-03-05T06:29:47.970Z,97949.13
2023-03-05T06:32:14.576Z,97941.34
2023-03-05T06:34:41.199Z,97942.16
2023-03-05T06:37:07.689Z,97947.31
2023-03-05T06:39:34.335Z,97946.34
2023-03-05T06:42:00.911Z,97941.94
2023-03-05T06:44:27.516Z,97927.41
2023-03-05T06:46:54.068Z,97938.44
2023-03-05T06:49:20.706Z,97921.63
2023-03-05T06:51:47.236Z,97940.13
2023-03-05T06:54:16.414Z,97939.16
2023-03-05T06:56:45.601Z,97934.84
2023-03-05T06:59:14.162Z,97937.25
2023-03-05T07:01:40.818Z,97936.28
2023-03-05T07:04:07.837Z,97924.88
2023-03-05T07:06:36.653Z,97907.25
2023-03-05T07:09:05.479Z,97930.88
2023-03-05T07:11:35.527Z,97931.72
2023-03-05T07:14:02.775Z,97933.53
2023-03-05T07:16:32.051Z,97928.94
2023-03-05T07:19:02.684Z,97920.19
2023-03-05T07:21:32.330Z,97924.53
2023-03-05T07:24:00.688Z,97921.88
2023-03-05T07:26:27.942Z,97908.91
2023-03-05T07:28:55.324Z,97921.75
2023-03-05T07:31:27.244Z,97911.06
2023-03-05T07:33:54.201Z,97911.19
2023-03-05T07:36:20.845Z,97895.13
2023-03-05T07:38:47.503Z,97917.06
2023-03-05T07:41:19.963Z,97910.84
2023-03-05T07:43:48.540Z,97902.19
2023-03-05T07:46:16.818Z,97911.56
2023-03-05T07:48:43.458Z,97900.28
2023-03-05T07:51:16.251Z,97900.00
2023-03-05T07:53:43.888Z,97899.91
2023-03-05T07:56:11.098Z,97902.41
2023-03-05T07:58:37.849Z,97888.75
2023-03-05T08:01:04.810Z,97896.88
2023-03-05T08:03:33.730Z,97892.56
2023-03-05T08:06:00.332Z,97886.44
2023-03-05T08:08:26.959Z,97884.66
2023-03-05T08:10:56.265Z,97884.75
2023-03-05T08:13:22.882Z,97883.06
2023-03-05T08:15:49.417Z,97880.44
2023-03-05T08:18:19.071Z,97880.44
2023-03-05T08:20:46.850Z,97863.81
2023-03-05T08:23:13.410Z,97876.38
2023-03-05T08:25:40.032Z,97876.97
2023-03-05T08:28:06.715Z,97873.50
2023-03-05T08:30:33.292Z,97876.97
2023-03-05T08:32:59.955Z,97877.78
2023-03-05T08:35:26.530Z,97887.53
2023-03-05T08:37:53.189Z,97884.06
2023-03-05T08:40:20.187Z,97881.53
2023-03-05T08:42:46.825Z,97886.81
2023-03-05T08:45:13.415Z,97880.69
2023-03-05T08:47:40.354Z,97873.75
2023-03-05T08:50:07.357Z,97874.47
2023-03-05T08:52:34.162Z,97873.50
2023-03-05T08:55:01.058Z,97864.41
2023-03-05T08:57:27.760Z,97872.50
2023-03-05T08:59:54.403Z,97867.22
2023-03-05T09:02:21.154Z,97866.41
2023-03-05T09:04:47.791Z,97861.94
2023-03-05T09:07:14.428Z,97861.13
2023-03-05T09:09:41.051Z,97850.47
2023-03-05T09:12:07.996Z,97857.75
2023-03-05T09:14:34.507Z,97854.28
2023-03-05T09:17:02.131Z,97848.19
2023-03-05T09:19:28.667Z,97853.47
2023-03-05T09:21:56.992Z,97849.00
2023-03-05T09:24:23.716Z,97851.66
2023-03-05T09:26:50.675Z,97847.34
2023-03-05T09:29:17.561Z,97844.69
2023-03-05T09:31:44.320Z,97843.75
2023-03-05T09:34:13.737Z,97835.09
2023-03-05T09:36:40.302Z,97835.00
2023-03-05T09:39:07.024Z,97837.50
2023-03-05T09:41:59.943Z,97836.41
2023-03-05T09:44:41.575Z,97828.34
2023-03-05T09:47:14.878Z,97826.56
2023-03-05T09:49:55.271Z,97820.28
2023-03-05T09:52:28.803Z,97812.28
2023-03-05T09:54:57.849Z,97814.78
2023-03-05T09:57:43.667Z,97813.69
2023-03-05T10:00:37.904Z,97815.22
2023-03-05T10:03:10.469Z,97811.75
2023-03-05T10:06:04.136Z,97817.72
2023-03-05T10:08:46.986Z,97810.53
2023-03-05T10:11:28.325Z,97811.25
2023-03-05T10:13:55.086Z,97806.78
2023-03-05T10:16:39.592Z,97799.59
2023-03-05T10:19:34.030Z,97793.34
2023-03-05T10:22:22.254Z,97796.81
2023-03-05T10:25:04.388Z,97785.59
2023-03-05T10:27:56.832Z,97784.41
2023-03-05T10:30:35.842Z,97790.63
2023-03-05T10:33:02.496Z,97786.56
2023-03-05T10:35:50.763Z,97778.09
2023-03-05T10:38:35.763Z,97772.94
2023-03-05T10:41:12.427Z,97775.63
2023-03-05T10:43:52.818Z,97769.41
2023-03-05T10:46:22.229Z,97763.91
2023-03-05T10:48:59.711Z,97758.41
2023-03-05T10:51:35.118Z,97764.28
2023-03-05T10:54:28.925Z,97752.31
2023-03-05T10:57:18.024Z,97723.06
2023-03-05T10:59:49.871Z,97745.84
2023-03-05T11:02:17.393Z,97747.97
2023-03-05T11:04:44.390Z,97734.34
2023-03-05T11:07:17.157Z,97754.44
2023-03-05T11:10:02.067Z,97763.09
2023-03-05T11:12:33.400Z,97751.53
2023-03-05T11:15:26.476Z,97749.50
2023-03-05T11:18:16.708Z,97762.59
2023-03-05T11:20:43.710Z,97753.69
2023-03-05T11:23:23.745Z,97756.34
2023-03-05T11:26:05.584Z,97757.19
2023-03-05T11:28:41.065Z,97752.75
2023-03-05T11:31:19.938Z,97750.97
2023-03-05T11:33:58.062Z,97751.66
2023-03-05T11:36:36.663Z,97744.34
2023-03-05T11:39:23.468Z,97744.22
2023-03-05T11:42:06.293Z,97750.19
2023-03-05T11:44:38.168Z,97734.13
2023-03-05T11:47:18.474Z,97734.72
2023-03-05T11:49:47.600Z,97726.56
2023-03-05T11:52:23.319Z,97718.41
2023-03-05T11:55:11.180Z,97720.91
2023-03-05T11:57:47.287Z,97721.72
2023-03-05T12:00:19.074Z,97713.00
2023-03-05T12:02:50.522Z,97710.34
2023-03-05T12:05:17.473Z,97707.72
2023-03-05T12:07:49.343Z,97713.00
2023-03-05T12:10:22.476Z,97692.84
2023-03-05T12:12:49.125Z,97695.47
2023-03-05T12:15:18.407Z,97696.22
2023-03-05T12:18:03.682Z,97697.88
2023-03-05T12:20:42.187Z,97696.06
2023-03-05T12:23:18.359Z,97689.13
2023-03-05T12:25:46.993Z,97697.47
2023-03-05T12:28:37.437Z,97689.53
2023-03-05T12:31:06.565Z,97692.03
2023-03-05T12:33:43.864Z,97696.00
2023-03-05T12:36:19.600Z,97686.09
2023-03-05T12:38:54.124Z,97670.94
2023-03-05T12:41:23.484Z,97695.81
2023-03-05T12:44:05.050Z,97685.88
2023-03-05T12:46:35.890Z,97674.44
2023-03-05T12:49:17.770Z,97679.28
2023-03-05T12:51:46.558Z,97682.44
2023-03-05T12:54:27.621Z,97672.47
2023-03-05T12:56:59.858Z,97660.06
2023-03-05T13:00:11.011Z,97663.41
2023-03-05T13:02:42.562Z,97653.03
2023-03-05T13:05:34.184Z,97655.91
2023-03-05T13:08:28.188Z,97658.06
2023-03-05T13:11:16.767Z,97656.63
2023-03-05T13:13:46.219Z,97654.47
2023-03-05T13:16:29.038Z,97656.03
2023-03-05T13:18:59.266Z,97658.44
2023-03-05T13:21:29.671Z,97665.00
2023-03-05T13:24:01.932Z,97659.38
2023-03-05T13:26:30.041Z,97667.88
2023-03-05T13:29:16.747Z,97658.91
2023-03-05T13:31:57.447Z,97658.66
2023-03-05T13:34:32.036Z,97662.00
2023-03-05T13:37:01.501Z,97657.47
2023-03-05T13:39:34.226Z,97639.38
2023-03-05T13:42:07.078Z,97654.47
2023-03-05T13:44:34.625Z,97660.44
2023-03-05T13:47:29.170Z,97654.09
2023-03-05T13:50:05.765Z,97647.75
2023-03-05T13:52:36.206Z,97650.25
2023-03-05T13:55:05.411Z,97651.06
2023-03-05T13:57:39.983Z,97649.88
2023-03-05T14:00:34.697Z,97651.56
2023-03-05T14:03:09.155Z,97640.03
2023-03-05T14:05:36.219Z,97644.22
2023-03-05T14:08:03.135Z,97645.84
2023-03-05T14:10:38.177Z,97586.81
2023-03-05T14:13:11.657Z,97624.22
2023-03-05T14:15:39.228Z,97630.13
2023-03-05T14:18:11.871Z,97642.22
2023-03-05T14:20:59.663Z,97635.13
2023-03-05T14:23:44.301Z,97632.25
2023-03-05T14:26:22.801Z,97611.06
2023-03-05T14:29:08.970Z,97574.34
2023-03-05T14:31:46.239Z,97629.47
2023-03-05T14:34:24.859Z,97601.50
2023-03-05T14:36:53.741Z,97624.81
2023-03-05T14:39:46.740Z,97614.03
2023-03-05T14:42:39.379Z,97636.63
2023-03-05T14:45:20.294Z,97638.31
2023-03-05T14:47:51.512Z,97631.94
2023-03-05T14:50:27.865Z,97611.63
2023-03-05T14:53:04.095Z,97618.06
2023-03-05T14:55:32.105Z,97618.66
2023-03-05T14:58:14.078Z,97619.47
2023-03-05T15:00:41.282Z,97629.28
2023-03-05T15:03:11.516Z,97636.69
2023-03-05T15:05:39.065Z,97599.47
2023-03-05T15:08:06.193Z,97613.69
2023-03-05T15:10:32.910Z,97621.31
2023-03-05T15:12:59.694Z,97602.06
2023-03-05T15:15:26.956Z,97606.22
2023-03-05T15:17:55.109Z,97615.63
2023-03-05T15:20:27.796Z,97608.44
2023-03-05T15:22:54.991Z,97616.34
2023-03-05T15:25:23.407Z,97612.50
2023-03-05T15:27:53.467Z,97590.84
2023-03-05T15:30:35.455Z,97599.31
2023-03-05T15:33:06.520Z,97606.97
2023-03-05T15:35:33.223Z,97597.22
2023-03-05T15:37:59.923Z,97593.63
2023-03-05T15:40:27.897Z,97598.81
2023-03-05T15:42:56.557Z,97588.03
2023-03-05T15:45:23.649Z,97587.66
2023-03-05T15:47:51.941Z,97579.28
2023-03-05T15:50:20.349Z,97609.91
2023-03-05T15:52:47.703Z,97599.25
2023-03-05T15:55:14.403Z,97604.38
2023-03-05T15:57:46.594Z,97598.16
2023-03-05T16:00:13.834Z,97603.41
2023-03-05T16:02:40.743Z,97608.56
2023-03-05T16:05:08.493Z,97586.56
2023-03-05T16:07:39.063Z,97510.72
2023-03-05T16:10:07.069Z,97606.88
2023-03-05T16:12:40.773Z,97573.13
2023-03-05T16:15:13.666Z,97596.69
2023-03-05T16:17:43.106Z,97614.22
2023-03-05T16:20:12.492Z,97610.63
2023-03-05T16:22:39.491Z,97593.63
2023-03-05T16:25:06.817Z,97605.63
2023-03-05T16:27:33.818Z,97611.00
2023-03-05T16:30:00.544Z,97612.69
2023-03-05T16:32:29.378Z,97611.13
2023-03-05T16:34:58.184Z,97607.09
2023-03-05T16:37:27.947Z,97611.41
2023-03-05T16:39:58.058Z,97592.16
2023-03-05T16:42:24.629Z,97605.66
2023-03-05T16:44:51.802Z,97622.19
2023-03-05T16:47:18.525Z,97607.72
2023-03-05T16:49:48.069Z,97612.88
2023-03-05T16:52:19.175Z,97626.91
2023-03-05T16:54:47.479Z,97615.19
2023-03-05T16:57:14.502Z,97582.06
2023-03-05T16:59:41.536Z,97604.53
2023-03-05T17:02:08.220Z,97609.81
2023-03-05T17:04:35.331Z,97610.75
2023-03-05T17:07:04.084Z,97621.53
2023-03-05T17:09:30.869Z,97618.22
2023-03-05T17:11:57.444Z,97632.09
2023-03-05T17:14:24.223Z,97627.78
2023-03-05T17:16:50.966Z,97646.38
2023-03-05T17:19:17.693Z,97642.78
2023-03-05T17:21:44.363Z,97634.78
2023-03-05T17:24:11.774Z,97633.56
2023-03-05T17:26:38.553Z,97603.72
2023-03-05T17:29:06.195Z,97626.22
2023-03-05T17:31:32.887Z,97614.75
2023-03-05T17:34:00.058Z,97653.84
2023-03-05T17:36:27.723Z,97653.84
2023-03-05T17:38:54.502Z,97651.19
2023-03-05T17:41:21.888Z,97659.13
2023-03-05T17:43:49.085Z,97582.59
2023-03-05T17:46:17.063Z,97646.88
2023-03-05T17:48:44.153Z,97647.75
2023-03-05T17:51:14.324Z,97636.97
2023-03-05T17:53:41.212Z,97641.75
2023-03-05T17:56:13.206Z,97641.38
2023-03-05T17:58:42.732Z,97647.25
2023-03-05T18:01:09.644Z,97636.94
2023-03-05T18:03:41.657Z,97646.81
2023-03-05T18:06:09.912Z,97646.59
2023-03-05T18:08:37.049Z,97653.53
2023-03-05T18:11:03.762Z,97648.84
2023-03-05T18:13:30.309Z,97649.44
2023-03-05T18:16:00.860Z,97651.22
2023-03-05T18:18:27.758Z,97648.34
2023-03-05T18:20:55.065Z,97660.44
2023-03-05T18:23:21.683Z,97660.31
2023-03-05T18:25:48.372Z,97635.16
2023-03-05T18:28:16.103Z,97649.25
2023-03-05T18:30:48.312Z,97652.69
2023-03-05T18:33:25.027Z,97651.75
2023-03-05T18:35:52.463Z,97640.22
2023-03-05T18:38:24.295Z,97628.66
2023-03-05T18:40:52.665Z,97638.31
2023-03-05T18:43:21.333Z,97624.09
2023-03-05T18:45:53.048Z,97633.72
2023-03-05T18:48:20.485Z,97635.44
2023-03-05T18:50:50.608Z,97641.56
2023-03-05T18:53:21.620Z,97634.38
2023-03-05T18:55:50.938Z,97640.47
2023-03-05T18:58:18.715Z,97626.06
2023-03-05T19:00:52.166Z,97646.19
2023-03-05T19:03:20.650Z,97640.91
2023-03-05T19:05:50.139Z,97627.00
2023-03-05T19:08:20.557Z,97630.34
2023-03-05T19:10:50.011Z,97638.00
2023-03-05T19:13:35.510Z,97644.13
2023-03-05T19:16:09.445Z,97648.31
2023-03-05T19:18:43.086Z,97599.63
2023-03-05T19:21:11.948Z,97637.16
2023-03-05T19:23:38.476Z,97647.22
2023-03-05T19:26:05.542Z,97645.66
2023-03-05T19:28:32.182Z,97634.53
2023-03-05T19:30:58.973Z,97618.63
2023-03-05T19:33:25.701Z,97611.56
2023-03-05T19:35:52.492Z,97650.28
2023-03-05T19:38:21.986Z,97646.69
2023-03-05T19:40:48.876Z,97651.81
2023-03-05T19:43:17.606Z,97650.03
2023-03-05T19:45:49.681Z,97648.22
2023-03-05T19:48:19.054Z,97645.66
2023-03-05T19:50:45.636Z,97630.53
2023-03-05T19:53:12.329Z,97647.13
2023-03-05T19:55:40.355Z,97651.44
2023-03-05T19:58:10.022Z,97642.94
2023-03-05T20:00:37.225Z,97652.03
2023-03-05T20:03:09.443Z,97652.03
2023-03-05T20:05:40.005Z,97652.88
2023-03-05T20:08:06.698Z,97645.66
2023-03-05T20:10:35.576Z,97650.78
2023-03-05T20:13:05.560Z,97636.19
2023-03-05T20:15:35.347Z,97637.34
2023-03-05T20:18:01.969Z,97634.84
2023-03-05T20:20:31.087Z,97637.19
2023-03-05T20:23:01.055Z,97637.91
2023-03-05T20:25:28.222Z,97615.06
2023-03-05T20:27:54.882Z,97635.97
2023-03-05T20:30:25.016Z,97630.00
2023-03-05T20:32:51.865Z,97625.81
2023-03-05T20:35:21.555Z,97623.84
2023-03-05T20:38:00.256Z,97617.75
2023-03-05T20:40:27.345Z,97597.28
2023-03-05T20:43:00.946Z,97621.94
2023-03-05T20:45:27.678Z,97625.97
2023-03-05T20:47:55.317Z,97623.75
2023-03-05T20:50:24.432Z,97623.22
2023-03-05T20:52:51.227Z,97622.25
2023-03-05T20:55:17.927Z,97613.75
2023-03-05T20:57:45.550Z,97612.91
2023-03-05T21:00:15.811Z,97614.44
2023-03-05T21:02:42.556Z,97617.78
2023-03-05T21:05:12.146Z,97616.81
2023-03-05T21:07:48.531Z,97609.16
2023-03-05T21:12:16.530Z,97597.44
2023-03-05T21:14:43.706Z,97606.25
2023-03-05T21:17:10.414Z,97603.75
2023-03-05T21:19:40.105Z,97607.09
2023-03-05T21:22:07.923Z,97596.66
2023-03-05T21:24:53.842Z,97601.94
2023-03-05T21:27:20.847Z,97594.97
2023-03-05T21:29:47.558Z,97584.81
2023-03-05T21:32:14.945Z,97592.63
2023-03-05T21:34:46.318Z,97569.63
2023-03-05T21:37:13.203Z,97591.78
2023-03-05T21:39:39.812Z,97585.81
2023-03-05T21:42:09.212Z,97576.75
2023-03-05T21:44:35.792Z,97587.72
2023-03-05T21:47:02.867Z,97526.44
2023-03-05T21:49:29.430Z,97574.75
2023-03-05T21:52:13.704Z,97587.97
2023-03-05T21:54:41.839Z,97568.94
2023-03-05T21:57:10.888Z,97572.56
2023-03-05T21:59:41.694Z,97573.53
2023-03-05T22:02:16.821Z,97568.25
2023-03-05T22:04:44.439Z,97569.94
2023-03-05T22:07:11.115Z,97563.78
2023-03-05T22:09:38.095Z,97558.31
2023-03-05T22:12:06.246Z,97565.47
2023-03-05T22:14:32.984Z,97554.31
2023-03-05T22:17:02.070Z,97558.38
2023-03-05T22:19:32.398Z,97548.34
2023-03-05T22:21:58.989Z,97556.69
2023-03-05T22:24:28.381Z,97571.47
2023-03-05T22:26:55.107Z,97570.59
2023-03-05T22:29:21.602Z,97562.00
2023-03-05T22:31:48.306Z,97567.97
2023-03-05T22:34:14.930Z,97555.72
2023-03-05T22:36:41.541Z,97553.38
2023-03-05T22:39:08.223Z,97544.63
2023-03-05T22:41:34.862Z,97550.44
2023-03-05T22:44:01.414Z,97530.09
2023-03-05T22:46:28.123Z,97553.50
2023-03-05T22:48:54.850Z,97558.25
2023-03-05T22:51:21.500Z,97549.47
2023-03-05T22:53:48.106Z,97535.81
2023-03-05T22:56:18.252Z,97550.34
2023-03-05T22:58:45.060Z,97550.34
2023-03-05T23:01:14.096Z,97560.03
2023-03-05T23:03:42.213Z,97555.63
2023-03-05T23:06:09.485Z,97549.75
2023-03-05T23:08:36.516Z,97552.25
2023-03-05T23:11:08.747Z,97536.69
2023-03-05T23:13:35.332Z,97542.41
2023-03-05T23:16:01.965Z,97526.13
2023-03-05T23:18:28.758Z,97547.56
2023-03-05T23:20:55.401Z,97509.00
2023-03-05T23:23:22.223Z,97508.16
2023-03-05T23:25:51.491Z,97522.22
2023-03-05T23:28:19.614Z,97529.47
2023-03-05T23:30:46.460Z,97533.53
2023-03-05T23:33:20.756Z,97534.50
2023-03-05T23:35:59.477Z,97544.09
2023-03-05T23:38:28.023Z,97539.06
2023-03-05T23:40:58.523Z,97549.47
2023-03-05T23:43:27.080Z,97547.56
2023-03-05T23:45:55.083Z,97542.41
2023-03-05T23:48:26.298Z,97526.63
2023-03-05T23:50:53.233Z,97535.59
2023-03-05T23:53:24.652Z,97549.47
2023-03-05T23:55:51.965Z,97547.81
2023-03-05T23:58:20.482Z,97532.19
